Time;durP1;ratioP1;P1;durP2;ratioP2;P2;SDS_P1;SDS_P2;PMS_P1;PMS_P2;Temp;Humidity;BMP_temperature;BMP_pressure;BME280_temperature;BME280_humidity;BME280_pressure;Samples;Min_cycle;Max_cycle;Signal;HPM_P1;HPM_P2
2022/04/17 00:01:04;;;;;;;7.22;0.73;;;;;;;14.75;42.83;101326.13;5039902;28;20061;-81
2022/04/17 00:03:48;;;;;;;0.95;0.60;;;;;;;14.82;42.63;101329.97;5039790;28;20049;-82
2022/04/17 00:06:33;;;;;;;2.22;0.70;;;;;;;14.76;41.52;101323.06;5037494;28;20068;-81
2022/04/17 00:09:18;;;;;;;0.75;0.70;;;;;;;14.72;41.02;101322.09;5035834;28;20125;-80
2022/04/17 00:12:03;;;;;;;2.90;0.85;;;;;;;14.73;42.20;101320.19;5033935;28;20048;-80
2022/04/17 00:14:48;;;;;;;1.60;0.45;;;;;;;14.69;42.05;101321.94;5039256;28;20052;-80
2022/04/17 00:17:32;;;;;;;3.25;1.13;;;;;;;14.59;42.45;101317.63;5044962;28;20052;-82
2022/04/17 00:20:18;;;;;;;;;;;;;;;14.52;42.65;101326.38;5050930;28;20048;-81
2022/04/17 00:23:02;;;;;;;3.00;0.82;;;;;;;14.53;42.67;101329.88;5043219;28;20289;-82
2022/04/17 00:25:47;;;;;;;;;;;;;;;14.51;42.42;101322.03;5048466;28;20052;-81
2022/04/17 00:28:32;;;;;;;1.65;0.80;;;;;;;14.45;42.61;101323.31;5042360;28;19920;-82
2022/04/17 00:31:16;;;;;;;1.65;0.80;;;;;;;14.42;42.89;101323.19;5047514;28;20052;-82
2022/04/17 00:34:01;;;;;;;4.20;0.93;;;;;;;14.36;43.09;101325.28;5043855;28;20056;-82
2022/04/17 00:36:47;;;;;;;1.45;0.80;;;;;;;14.34;43.18;101322.03;5040887;28;20049;-83
2022/04/17 00:39:32;;;;;;;;;;;;;;;14.18;44.10;101323.66;5040949;28;20125;-82
2022/04/17 00:42:17;;;;;;;1.30;0.75;;;;;;;14.27;43.11;101331.88;5042509;28;19913;-82
2022/04/17 00:45:02;;;;;;;2.42;0.75;;;;;;;14.19;43.51;101329.94;5045214;28;20057;-82
2022/04/17 00:47:47;;;;;;;3.97;0.88;;;;;;;14.08;43.88;101326.72;5039431;28;20072;-81
2022/04/17 00:50:31;;;;;;;3.72;0.57;;;;;;;14.11;43.31;101323.38;5041536;28;20053;-82
2022/04/17 00:53:21;;;;;;;3.30;0.47;;;;;;;14.12;43.35;101335.88;5040159;28;20152;-82
2022/04/17 00:56:06;;;;;;;4.72;0.90;;;;;;;14.08;43.43;101337.66;5034387;28;20435;-82
2022/04/17 00:58:52;;;;;;;7.85;1.02;;;;;;;14.06;43.52;101335.28;5039997;28;20044;-82
2022/04/17 01:01:37;;;;;;;1.13;0.60;;;;;;;14.03;43.52;101332.38;5039539;28;20052;-82
2022/04/17 01:04:22;;;;;;;2.75;0.80;;;;;;;13.91;43.47;101329.50;5034159;28;20421;-82
2022/04/17 01:07:08;;;;;;;3.03;0.82;;;;;;;13.91;44.06;101324.03;5035682;28;20417;-82
2022/04/17 01:09:55;;;;;;;2.88;0.82;;;;;;;13.79;43.89;101323.84;5039816;28;20053;-81
2022/04/17 01:12:40;;;;;;;3.72;1.55;;;;;;;13.83;43.79;101322.06;5038488;28;20064;-81
2022/04/17 01:15:25;;;;;;;1.95;0.70;;;;;;;13.67;44.32;101325.28;5039427;28;20045;-83
2022/04/17 01:18:10;;;;;;;1.05;0.60;;;;;;;13.65;44.49;101324.03;5039519;28;20060;-81
2022/04/17 01:20:55;;;;;;;1.20;0.75;;;;;;;13.55;45.37;101316.13;5039268;28;20056;-80
2022/04/17 01:26:56;;;;;;;1.77;1.10;;;;;;;13.49;45.04;101320.16;5033689;28;20044;-81
2022/04/17 01:29:41;;;;;;;4.28;1.00;;;;;;;13.46;44.48;101318.84;5039406;28;20048;-82
2022/04/17 01:32:26;;;;;;;3.08;0.93;;;;;;;13.43;44.57;101324.16;5033500;28;20048;-81
2022/04/17 01:35:11;;;;;;;4.57;1.17;;;;;;;13.32;45.01;101323.66;5034097;28;20453;-82
2022/04/17 01:37:56;;;;;;;3.35;1.42;;;;;;;13.33;44.91;101322.53;5033102;28;20417;-82
2022/04/17 01:40:41;;;;;;;3.75;1.48;;;;;;;13.26;44.90;101324.91;5035301;28;20417;-82
2022/04/17 01:43:26;;;;;;;3.95;0.85;;;;;;;13.27;45.87;101332.78;5038339;28;20056;-81
2022/04/17 01:46:11;;;;;;;3.17;1.23;;;;;;;13.32;46.44;101344.69;5036951;28;20604;-81
2022/04/17 01:48:56;;;;;;;1.38;0.80;;;;;;;13.25;46.77;101340.53;5038258;28;20417;-81
2022/04/17 01:51:41;;;;;;;1.60;0.68;;;;;;;13.33;46.07;101335.38;5038135;28;20056;-82
2022/04/17 01:54:27;;;;;;;1.95;0.75;;;;;;;13.31;46.03;101341.16;5026715;28;20048;-82
2022/04/17 01:57:12;;;;;;;7.03;1.20;;;;;;;13.30;46.58;101333.28;5021443;28;20433;-82
2022/04/17 01:59:57;;;;;;;2.17;0.90;;;;;;;13.23;46.74;101341.94;5018523;28;20044;-82
2022/04/17 02:02:42;;;;;;;1.45;0.88;;;;;;;13.25;47.19;101339.72;5012780;28;20049;-82
2022/04/17 02:05:26;;;;;;;4.18;1.08;;;;;;;13.21;47.97;101336.78;5012946;28;20056;-81
2022/04/17 02:08:13;;;;;;;2.97;0.85;;;;;;;13.34;46.81;101335.06;5032310;28;20053;-81
2022/04/17 02:10:58;;;;;;;2.67;1.08;;;;;;;13.39;45.62;101334.09;5017800;28;20053;-81
2022/04/17 02:13:43;;;;;;;6.28;1.85;;;;;;;13.36;45.04;101327.34;5018085;28;20064;-82
2022/04/17 02:16:28;;;;;;;4.03;1.50;;;;;;;13.37;44.83;101336.34;5016157;28;20053;-82
2022/04/17 02:19:13;;;;;;;10.35;1.95;;;;;;;13.32;44.76;101337.31;5032043;28;20065;-82
2022/04/17 02:21:58;;;;;;;3.35;1.45;;;;;;;13.30;45.39;101336.03;5031951;28;20048;-84
2022/04/17 02:24:42;;;;;;;4.13;0.77;;;;;;;13.26;45.56;101335.84;5032119;28;20065;-81
2022/04/17 02:27:28;;;;;;;2.70;0.90;;;;;;;13.14;45.49;101341.94;5012212;28;20685;-82
2022/04/17 02:30:12;;;;;;;3.33;0.82;;;;;;;13.02;46.86;101355.34;5018061;28;20069;-81
2022/04/17 02:32:56;;;;;;;4.65;0.93;;;;;;;13.05;47.39;101352.00;5012383;28;20049;-82
2022/04/17 02:35:42;;;;;;;5.38;1.17;;;;;;;12.96;47.24;101355.78;5017826;28;20052;-84
2022/04/17 02:38:36;;;;;;;2.80;1.13;;;;;;;13.00;47.61;101354.88;5033119;28;20057;-82
2022/04/17 02:41:21;;;;;;;7.93;1.30;;;;;;;12.90;47.70;101357.84;5035861;28;20049;-80
2022/04/17 02:44:06;;;;;;;3.80;0.77;;;;;;;12.87;47.51;101355.75;5035605;28;20044;-81
2022/04/17 02:49:54;;;;;;;6.80;1.17;;;;;;;13.04;49.04;101360.50;5035699;28;20064;-81
2022/04/17 02:52:40;;;;;;;7.18;1.38;;;;;;;13.05;48.58;101356.66;5015934;28;20057;-81
2022/04/17 02:55:25;;;;;;;5.22;2.22;;;;;;;13.00;47.84;101359.53;5035337;28;20052;-82
2022/04/17 02:58:12;;;;;;;;;;;;;;;12.86;46.86;101356.88;5016316;28;20052;-82
2022/04/17 03:07:04;;;;;;;13.52;1.98;;;;;;;12.91;45.89;101350.47;5031331;28;20040;-82
2022/04/17 03:09:48;;;;;;;3.40;1.43;;;;;;;12.89;45.53;101352.72;5018665;28;20061;-83
2022/04/17 03:12:36;;;;;;;4.20;1.50;;;;;;;12.60;46.61;101345.84;5025657;28;20291;-83
2022/04/17 03:15:21;;;;;;;4.45;1.67;;;;;;;12.57;47.13;101342.94;5037907;28;20049;-83
2022/04/17 03:18:09;;;;;;;10.23;1.65;;;;;;;12.68;46.61;101345.09;5021547;28;20049;-81
2022/04/17 03:20:53;;;;;;;7.70;2.08;;;;;;;12.55;47.25;101351.41;5036459;28;20069;-82
2022/04/17 03:23:38;;;;;;;9.95;3.92;;;;;;;12.49;48.27;101344.50;5017326;28;20417;-82
2022/04/17 03:26:22;;;;;;;3.42;1.33;;;;;;;12.56;46.91;101339.41;5017538;28;20057;-80
2022/04/17 03:29:07;;;;;;;;;;;;;;;12.58;47.17;101330.91;5023262;28;20053;-82
2022/04/17 03:31:52;;;;;;;11.15;1.20;;;;;;;12.31;48.21;101327.22;5016997;28;19913;-81
2022/04/17 03:34:37;;;;;;;;;;;;;;;12.36;48.03;101339.91;5022929;28;20536;-81
2022/04/17 03:37:22;;;;;;;3.53;1.42;;;;;;;12.32;48.76;101336.22;5031751;28;19913;-81
2022/04/17 03:40:07;;;;;;;7.28;2.00;;;;;;;12.32;49.22;101341.66;5035984;28;20053;-83
2022/04/17 03:42:51;;;;;;;4.97;1.77;;;;;;;12.22;49.81;101347.38;5035574;28;20053;-82
2022/04/17 03:45:36;;;;;;;7.25;1.75;;;;;;;12.38;49.61;101343.16;5035213;28;20053;-83
2022/04/17 03:48:20;;;;;;;5.00;1.40;;;;;;;12.50;49.32;101350.75;5015800;28;20052;-83
2022/04/17 03:51:05;;;;;;;7.10;1.70;;;;;;;12.55;47.14;101340.50;5036747;28;20121;-80
2022/04/17 03:53:49;;;;;;;8.23;1.73;;;;;;;12.38;47.22;101346.69;5017137;28;20521;-82
2022/04/17 03:56:34;;;;;;;;;;;;;;;12.37;47.07;101347.81;5057449;23;20052;-77
2022/04/17 03:59:19;;;;;;;5.68;1.85;;;;;;;12.30;46.63;101336.50;5006413;28;19922;-78
2022/04/17 04:02:03;;;;;;;6.35;2.75;;;;;;;12.62;46.73;101343.59;5003470;28;20529;-78
2022/04/17 04:04:49;;;;;;;5.07;1.80;;;;;;;12.63;46.20;101337.03;5014894;28;20036;-78
2022/04/17 04:07:35;;;;;;;6.72;2.40;;;;;;;12.44;45.82;101333.72;5021319;28;20048;-78
2022/04/17 04:10:20;;;;;;;7.03;2.28;;;;;;;12.35;46.05;101338.31;5025017;28;20052;-78
2022/04/17 04:13:05;;;;;;;;;;;;;;;12.50;45.23;101340.63;5018604;28;20402;-78
2022/04/17 04:15:50;;;;;;;9.00;1.98;;;;;;;12.48;44.91;101339.34;5025785;28;19913;-78
2022/04/17 04:18:34;;;;;;;8.45;2.30;;;;;;;12.46;44.63;101344.31;5026140;28;20056;-78
2022/04/17 04:21:19;;;;;;;4.45;1.63;;;;;;;12.44;44.03;101350.09;5013439;28;20052;-78
2022/04/17 04:24:04;;;;;;;8.85;2.13;;;;;;;12.35;45.17;101349.22;5025715;28;20053;-79
2022/04/17 04:29:52;;;;;;;6.25;2.15;;;;;;;12.16;45.71;101349.41;5020873;28;20041;-79
2022/04/17 04:32:37;;;;;;;;;;;;;;;12.42;43.54;101355.06;5014680;28;20394;-77
2022/04/17 04:35:22;;;;;;;4.80;2.00;;;;;;;12.33;43.81;101351.47;5015261;28;19917;-78
2022/04/17 04:38:07;;;;;;;12.27;2.05;;;;;;;12.24;43.89;101356.06;5001564;28;20520;-78
2022/04/17 04:40:52;;;;;;;9.30;1.40;;;;;;;12.12;43.86;101350.34;5002946;28;20052;-78
2022/04/17 04:43:36;;;;;;;7.80;2.55;;;;;;;12.18;44.61;101351.84;5020381;28;20543;-78
2022/04/17 04:46:21;;;;;;;4.78;1.42;;;;;;;12.11;44.74;101348.72;5015596;28;20053;-78
2022/04/17 04:52:10;;;;;;;6.97;1.45;;;;;;;12.21;43.79;101346.56;5012518;28;20045;-78
2022/04/17 04:54:54;;;;;;;5.65;1.80;;;;;;;12.12;43.30;101355.81;5031535;28;20523;-80
2022/04/17 04:57:39;;;;;;;;;;;;;;;12.34;42.27;101358.53;5010114;28;20053;-77
2022/04/17 05:00:24;;;;;;;6.75;1.90;;;;;;;12.12;42.48;101363.97;5021599;28;19917;-78
2022/04/17 05:03:08;;;;;;;11.88;2.42;;;;;;;12.07;42.49;101362.19;5013593;28;20069;-77
2022/04/17 05:05:53;;;;;;;16.77;2.80;;;;;;;12.08;41.87;101361.09;5013546;28;20049;-78
2022/04/17 05:08:38;;;;;;;3.83;1.23;;;;;;;12.19;41.33;101361.66;5013146;28;20053;-77
2022/04/17 05:11:23;;;;;;;7.05;1.30;;;;;;;12.22;41.45;101363.75;5000980;28;20057;-78
2022/04/17 05:14:11;;;;;;;12.77;2.33;;;;;;;12.38;40.68;101357.59;5020639;28;20525;-79
2022/04/17 05:16:56;;;;;;;9.90;1.40;;;;;;;12.37;40.37;101358.72;5015873;28;20057;-79
2022/04/17 05:19:42;;;;;;;3.75;1.13;;;;;;;12.47;39.91;101352.19;5014789;28;20045;-78
2022/04/17 05:22:31;;;;;;;10.98;1.38;;;;;;;12.29;40.56;101356.72;5013418;28;20057;-78
2022/04/17 05:25:16;;;;;;;7.78;1.58;;;;;;;12.36;40.05;101353.56;5002635;28;20605;-79
2022/04/17 05:28:00;;;;;;;12.57;2.55;;;;;;;12.51;39.40;101352.34;5019509;28;20061;-79
2022/04/17 05:30:46;;;;;;;4.55;1.38;;;;;;;12.46;40.19;101358.75;5017977;28;20509;-80
2022/04/17 05:33:31;;;;;;;10.10;2.03;;;;;;;12.42;39.98;101360.50;5018947;28;20053;-79
2022/04/17 05:36:15;;;;;;;6.32;1.40;;;;;;;12.41;39.83;101367.06;5018708;28;20045;-79
2022/04/17 05:39:00;;;;;;;4.63;1.35;;;;;;;12.62;39.21;101370.09;5018044;28;20182;-78
2022/04/17 05:41:45;;;;;;;9.15;2.60;;;;;;;12.57;39.33;101373.75;5004801;28;20058;-78
2022/04/17 05:44:30;;;;;;;3.08;1.80;;;;;;;12.68;38.04;101372.38;5015987;28;20049;-79
2022/04/17 05:47:14;;;;;;;7.32;2.10;;;;;;;12.63;39.08;101377.16;5018607;28;20057;-79
2022/04/17 05:50:00;;;;;;;;;;;;;;;13.01;39.79;101377.47;5009408;28;20045;-84
2022/04/17 05:52:45;;;;;;;5.38;1.33;;;;;;;13.75;42.80;101370.16;5006352;28;19913;-83
2022/04/17 05:55:31;;;;;;;10.57;1.70;;;;;;;14.35;41.19;101381.09;5020574;28;20053;-83
2022/04/17 05:58:16;;;;;;;9.15;1.58;;;;;;;14.11;35.13;101383.53;5007666;28;20532;-83
2022/04/17 06:01:02;;;;;;;5.18;1.48;;;;;;;14.28;35.98;101379.97;5007226;28;20045;-84
2022/04/17 06:03:49;;;;;;;5.43;2.13;;;;;;;13.96;35.81;101382.09;5007216;28;20052;-83
2022/04/17 06:06:36;;;;;;;4.72;1.58;;;;;;;14.22;36.81;101389.47;5001820;28;20053;-84
2022/04/17 06:09:21;;;;;;;8.18;1.65;;;;;;;14.07;36.94;101390.75;4997759;28;20049;-84
2022/04/17 06:12:06;;;;;;;6.00;1.55;;;;;;;14.05;34.69;101391.09;4993792;28;20072;-83
2022/04/17 06:14:51;;;;;;;;;;;;;;;14.46;41.21;101400.75;5015647;28;20072;-83
2022/04/17 06:17:40;;;;;;;3.15;2.08;;;;;;;14.42;39.90;101394.31;5003208;28;19914;-83
2022/04/17 06:20:25;;;;;;;3.13;1.23;;;;;;;14.32;36.88;101389.97;5008118;28;20057;-83
2022/04/17 06:23:09;;;;;;;7.38;1.35;;;;;;;13.93;33.67;101390.91;5013213;28;20049;-83
2022/04/17 06:25:54;;;;;;;5.53;1.45;;;;;;;13.68;34.30;101397.97;5025009;28;20061;-83
2022/04/17 06:28:39;;;;;;;3.92;1.73;;;;;;;13.88;36.57;101401.19;5024288;28;20537;-83
2022/04/17 06:31:23;;;;;;;2.80;1.58;;;;;;;13.83;34.12;101398.63;5024744;28;20569;-82
2022/04/17 06:34:08;;;;;;;10.77;2.22;;;;;;;13.89;35.38;101397.34;5006225;28;20065;-83
2022/04/17 06:36:53;;;;;;;3.88;1.67;;;;;;;14.12;36.25;101401.53;5020611;28;20424;-83
2022/04/17 06:39:38;;;;;;;8.88;1.48;;;;;;;14.23;36.58;101393.81;5013189;28;20041;-82
2022/04/17 06:42:22;;;;;;;7.78;1.50;;;;;;;14.47;36.16;101403.16;5010047;28;20409;-82
2022/04/17 06:45:08;;;;;;;5.50;1.30;;;;;;;14.44;32.67;101403.00;4995339;28;20045;-82
2022/04/17 06:47:54;;;;;;;5.53;1.42;;;;;;;14.37;35.01;101397.22;5007136;28;20057;-83
2022/04/17 06:50:39;;;;;;;8.82;2.10;;;;;;;14.30;33.86;101405.06;5010255;28;20049;-85
2022/04/17 06:53:24;;;;;;;12.43;1.73;;;;;;;14.36;33.60;101393.69;5027354;28;20052;-83
2022/04/17 06:56:12;;;;;;;4.35;1.50;;;;;;;14.50;32.07;101399.78;5012118;28;20077;-82
2022/04/17 06:58:57;;;;;;;5.75;1.35;;;;;;;14.50;33.53;101390.75;5021632;28;20048;-82
2022/04/17 07:01:43;;;;;;;2.63;1.13;;;;;;;14.94;33.67;101384.81;5005319;28;20104;-82
2022/04/17 07:04:28;;;;;;;4.20;1.20;;;;;;;15.29;35.93;101396.44;5019558;28;20061;-82
2022/04/17 07:07:13;;;;;;;5.47;1.48;;;;;;;15.58;35.56;101386.66;5022754;28;20053;-82
2022/04/17 07:09:58;;;;;;;3.28;1.73;;;;;;;15.70;32.97;101389.44;5003989;28;20053;-82
2022/04/17 07:12:44;;;;;;;6.18;1.50;;;;;;;15.87;34.32;101372.88;5015591;28;20052;-82
2022/04/17 07:15:29;;;;;;;6.32;1.63;;;;;;;15.88;31.67;101376.44;5009860;28;20069;-83
2022/04/17 07:18:14;;;;;;;;;;;;;;;15.98;32.83;101374.09;4994412;28;20146;-83
2022/04/17 07:20:59;;;;;;;9.60;2.03;;;;;;;16.08;33.96;101379.16;5006403;28;19913;-82
2022/04/17 07:23:45;;;;;;;;;;;;;;;16.07;29.19;101371.25;5013770;28;20044;-82
2022/04/17 07:26:30;;;;;;;8.10;1.70;;;;;;;15.81;30.35;101379.69;5008053;28;19913;-83
2022/04/17 07:29:15;;;;;;;;;;;;;;;15.80;32.43;101372.59;5023085;28;20052;-82
2022/04/17 07:31:59;;;;;;;5.53;1.60;;;;;;;15.56;32.69;101378.75;5023268;28;19913;-81
2022/04/17 07:34:44;;;;;;;6.30;1.30;;;;;;;15.79;32.39;101376.50;5022163;28;20557;-82
2022/04/17 07:37:32;;;;;;;;;;;;;;;16.08;29.87;101376.44;5017455;28;20061;-84
2022/04/17 07:40:19;;;;;;;3.60;1.95;;;;;;;16.02;30.43;101379.69;5019691;28;19921;-82
2022/04/17 07:43:06;;;;;;;10.55;1.88;;;;;;;16.08;31.32;101381.91;5019763;28;20037;-81
2022/04/17 07:45:53;;;;;;;6.05;1.67;;;;;;;16.24;28.45;101382.09;5007174;28;20045;-81
2022/04/17 07:48:40;;;;;;;7.72;1.58;;;;;;;16.21;27.37;101383.56;5010750;28;20041;-83
2022/04/17 07:51:26;;;;;;;13.95;1.67;;;;;;;16.19;30.19;101374.88;5016105;28;20049;-82
2022/04/17 07:54:14;;;;;;;6.80;1.73;;;;;;;16.42;26.66;101375.28;5022058;28;20048;-83
2022/04/17 07:57:00;;;;;;;5.10;1.52;;;;;;;16.25;29.18;101362.53;5016918;28;20049;-85
2022/04/17 07:59:45;;;;;;;9.27;1.42;;;;;;;16.35;26.51;101366.00;5012421;28;20041;-83
2022/04/17 08:02:39;;;;;;;12.13;2.28;;;;;;;16.31;26.11;101367.81;5020158;28;20053;-85
2022/04/17 08:05:24;;;;;;;3.92;1.23;;;;;;;16.34;27.25;101364.41;5029641;28;20049;-82
2022/04/17 08:08:10;;;;;;;7.72;1.48;;;;;;;16.30;26.69;101363.47;5010091;28;20047;-84
2022/04/17 08:10:54;;;;;;;4.80;1.38;;;;;;;15.98;25.93;101365.84;5016794;28;20057;-84
2022/04/17 08:13:40;;;;;;;7.10;1.95;;;;;;;16.09;26.67;101356.09;5012973;28;20045;-84
2022/04/17 08:16:25;;;;;;;;;;;;;;;16.73;26.51;101363.84;5013341;28;20077;-84
2022/04/17 08:19:10;;;;;;;4.57;0.90;;;;;;;16.94;27.91;101361.81;5014753;28;20373;-84
2022/04/17 08:21:55;;;;;;;;;;;;;;;17.06;25.53;101353.59;5027097;28;20284;-84
2022/04/17 08:24:40;;;;;;;2.30;1.00;;;;;;;17.30;25.98;101346.47;5026101;28;19914;-84
2022/04/17 08:27:25;;;;;;;;;;;;;;;17.46;27.39;101350.13;4993841;28;20057;-84
2022/04/17 08:30:10;;;;;;;8.83;1.70;;;;;;;17.27;24.84;101342.44;5013206;28;19918;-88
2022/04/17 08:32:54;;;;;;;8.02;1.45;;;;;;;17.25;24.00;101339.25;5011312;28;20053;-85
2022/04/17 08:35:40;;;;;;;5.93;2.67;;;;;;;17.72;24.31;101342.31;5014638;28;20048;-86
2022/04/17 08:38:25;;;;;;;2.80;1.23;;;;;;;17.94;24.30;101351.97;5004001;28;20049;-86
2022/04/17 08:41:12;;;;;;;3.92;1.67;;;;;;;18.31;22.90;101350.69;5009179;28;20041;-86
2022/04/17 08:43:58;;;;;;;11.70;2.75;;;;;;;18.32;23.17;101337.72;5006248;28;20344;-87
2022/04/17 08:46:45;;;;;;;3.88;1.20;;;;;;;18.68;23.64;101351.31;5026300;28;20430;-86
2022/04/17 08:49:32;;;;;;;7.60;1.38;;;;;;;18.80;24.38;101342.94;5017853;28;20060;-86
2022/04/17 08:52:19;;;;;;;9.75;1.52;;;;;;;19.06;24.68;101344.34;5016030;28;20433;-86
2022/04/17 08:55:07;;;;;;;4.15;1.65;;;;;;;19.23;21.17;101344.00;5033701;28;20049;-82
2022/04/17 08:57:55;;;;;;;4.60;1.10;;;;;;;19.17;21.66;101340.72;4986164;28;20057;-88
2022/04/17 09:00:42;;;;;;;6.65;1.60;;;;;;;19.66;22.07;101350.53;5023480;28;20105;-85
2022/04/17 09:03:30;;;;;;;10.82;1.85;;;;;;;19.55;21.52;101331.78;5015344;28;20049;-85
2022/04/17 09:06:21;;;;;;;6.32;1.30;;;;;;;19.59;23.59;101316.09;5015551;28;20057;-85
2022/04/17 09:09:07;;;;;;;3.50;1.20;;;;;;;20.57;20.85;101317.63;5026828;28;20053;-85
2022/04/17 09:11:57;;;;;;;3.10;1.10;;;;;;;21.12;19.86;101311.44;5005086;28;20045;-86
2022/04/17 09:14:42;;;;;;;2.53;1.30;;;;;;;21.74;19.61;101309.13;5008618;28;20045;-85
2022/04/17 09:17:33;;;;;;;3.40;1.52;;;;;;;22.16;20.04;101306.91;5001486;28;20049;-85
2022/04/17 09:20:24;;;;;;;4.90;1.40;;;;;;;22.63;20.56;101312.91;5004292;28;20041;-84
2022/04/17 09:23:09;;;;;;;6.25;1.58;;;;;;;23.97;18.40;101293.56;5009290;28;20053;-84
2022/04/17 09:25:55;;;;;;;4.63;1.73;;;;;;;25.55;16.25;101309.53;5013283;28;20049;-83
2022/04/17 09:28:45;;;;;;;5.47;1.30;;;;;;;26.48;14.65;101309.06;5017323;28;20509;-85
2022/04/17 09:31:32;;;;;;;9.15;1.30;;;;;;;32.71;10.18;101319.22;5023520;28;20053;-85
2022/04/17 09:34:18;;;;;;;6.55;1.20;;;;;;;34.66;8.65;101323.25;5017808;28;20049;-82
2022/04/17 09:37:17;;;;;;;7.95;1.50;;;;;;;31.50;10.10;101313.59;5002835;28;20049;-81
2022/04/17 09:40:08;;;;;;;10.07;1.88;;;;;;;33.91;8.59;101319.78;5010210;28;20041;-82
2022/04/17 09:43:17;;;;;;;10.23;1.50;;;;;;;36.63;7.60;101329.66;5004631;28;20052;-82
2022/04/17 09:46:08;;;;;;;3.83;1.20;;;;;;;34.86;8.06;101308.69;5009500;28;20072;-82
2022/04/17 09:48:57;;;;;;;7.18;1.95;;;;;;;35.03;8.36;101296.63;5013873;28;20045;-83
2022/04/17 09:51:45;;;;;;;8.45;1.85;;;;;;;33.75;8.52;101303.84;5008967;28;20413;-81
2022/04/17 09:54:32;;;;;;;7.97;2.08;;;;;;;26.31;14.05;101280.91;5008901;28;20056;-80
2022/04/17 09:57:31;;;;;;;6.25;1.73;;;;;;;23.99;16.50;101280.06;5025082;23;20347;-71
2022/04/17 10:00:18;;;;;;;9.52;1.85;;;;;;;23.25;17.62;101280.53;5010455;28;20053;-72
2022/04/17 10:03:07;;;;;;;16.88;1.67;;;;;;;21.98;18.42;101278.22;5012232;28;20053;-72
2022/04/17 10:05:52;;;;;;;7.35;1.63;;;;;;;21.34;19.47;101268.28;5019994;28;20042;-73
2022/04/17 10:08:39;;;;;;;2.83;1.35;;;;;;;21.11;19.47;101271.09;5012101;28;20049;-71
2022/04/17 10:11:23;;;;;;;21.60;2.30;;;;;;;21.17;20.00;101264.13;5008286;28;20041;-71
2022/04/17 10:14:09;;;;;;;11.57;2.53;;;;;;;20.68;20.81;101255.03;5003070;28;20050;-72
2022/04/17 10:16:55;;;;;;;22.75;2.75;;;;;;;20.86;21.73;101254.16;5003939;28;20511;-71
2022/04/17 10:19:42;;;;;;;8.60;1.70;;;;;;;20.92;20.20;101254.63;5009311;28;20071;-71
2022/04/17 10:22:33;;;;;;;4.05;1.90;;;;;;;20.90;20.22;101246.69;5020001;28;20049;-71
2022/04/17 10:25:18;;;;;;;9.50;2.08;;;;;;;20.76;20.21;101245.69;5011963;28;20074;-72
2022/04/17 10:28:07;;;;;;;5.30;2.53;;;;;;;20.65;21.26;101240.00;5011956;28;20049;-72
2022/04/17 10:31:29;;;;;;;10.52;3.10;;;;;;;20.56;20.70;101233.94;5011749;28;20053;-72
2022/04/17 10:34:55;;;;;;;12.90;1.95;;;;;;;20.75;19.39;101230.25;5011901;28;20053;-72
2022/04/17 10:38:04;;;;;;;12.45;1.83;;;;;;;20.69;19.66;101231.75;5012136;28;20380;-70
2022/04/17 10:41:05;;;;;;;9.57;1.90;;;;;;;23.65;17.11;101221.25;5011802;28;20041;-70
2022/04/17 10:43:50;;;;;;;7.25;2.13;;;;;;;33.21;9.47;101235.75;5011617;28;20057;-71
2022/04/17 10:46:54;;;;;;;4.10;1.63;;;;;;;36.65;7.78;101249.81;5011683;28;20045;-70
2022/04/17 10:49:56;;;;;;;10.82;2.05;;;;;;;30.38;11.24;101231.03;5011803;28;20049;-69
2022/04/17 10:52:43;;;;;;;10.38;2.03;;;;;;;26.58;13.90;101216.13;5012140;28;20041;-70
2022/04/17 10:55:28;;;;;;;5.65;1.73;;;;;;;27.36;13.64;101216.13;5012439;28;20049;-71
2022/04/17 10:58:16;;;;;;;10.02;2.30;;;;;;;34.56;8.49;101223.53;5011492;28;20056;-70
2022/04/17 11:01:01;;;;;;;5.90;1.40;;;;;;;37.26;6.52;101229.16;5014302;28;20508;-71
2022/04/17 11:03:55;;;;;;;6.25;1.40;;;;;;;38.28;5.94;101221.81;5015111;28;20512;-72
2022/04/17 11:06:40;;;;;;;6.00;1.60;;;;;;;40.44;5.10;101228.06;5015429;28;20072;-72
2022/04/17 11:09:25;;;;;;;2.85;1.42;;;;;;;38.69;6.05;101216.16;5015217;28;20045;-72
2022/04/17 11:12:19;;;;;;;6.78;1.50;;;;;;;33.98;8.51;101191.69;5014857;28;20056;-71
2022/04/17 11:15:03;;;;;;;5.78;1.60;;;;;;;28.17;12.50;101194.69;5014740;28;20063;-71
2022/04/17 11:17:49;;;;;;;7.90;2.15;;;;;;;25.89;14.79;101178.81;5015078;28;20048;-71
2022/04/17 11:20:36;;;;;;;9.23;2.25;;;;;;;24.66;16.25;101163.38;5015722;28;20382;-70
2022/04/17 11:23:46;;;;;;;5.80;1.52;;;;;;;22.95;17.17;101161.44;5005185;28;20413;-71
2022/04/17 11:26:52;;;;;;;11.23;1.67;;;;;;;22.64;17.63;101162.81;5001779;28;20041;-71
2022/04/17 11:29:50;;;;;;;7.63;1.70;;;;;;;22.38;18.41;101154.69;5014660;28;20056;-70
2022/04/17 11:32:35;;;;;;;6.18;1.80;;;;;;;24.98;16.05;101149.41;5014528;28;20064;-70
2022/04/17 11:35:25;;;;;;;5.85;2.13;;;;;;;25.80;14.78;101152.63;5015056;28;20061;-69
2022/04/17 11:38:10;;;;;;;5.10;1.70;;;;;;;23.69;16.73;101139.53;5014968;28;20642;-70
2022/04/17 11:40:56;;;;;;;4.20;1.73;;;;;;;23.17;16.82;101140.13;5014265;28;20049;-70
2022/04/17 11:43:58;;;;;;;4.68;1.40;;;;;;;31.76;10.31;101148.53;5014348;28;20057;-71
2022/04/17 11:46:43;;;;;;;9.30;2.30;;;;;;;37.36;7.57;101158.09;5014408;28;20052;-71
2022/04/17 11:49:32;;;;;;;5.95;1.67;;;;;;;35.46;7.92;101154.06;5014427;28;20057;-70
2022/04/17 11:52:23;;;;;;;6.93;1.70;;;;;;;40.49;5.85;101158.88;5014057;28;20053;-71
2022/04/17 11:55:08;;;;;;;10.18;1.50;;;;;;;37.06;7.36;101138.22;5014276;28;20064;-70
2022/04/17 11:57:55;;;;;;;5.72;1.50;;;;;;;29.18;12.38;101122.41;5014076;28;20056;-71
2022/04/17 12:00:40;;;;;;;4.07;1.30;;;;;;;26.64;14.73;101128.00;5004292;28;20045;-70
2022/04/17 12:03:44;;;;;;;6.53;2.00;;;;;;;24.99;16.54;101123.94;5014400;28;20048;-70
2022/04/17 12:06:32;;;;;;;5.78;2.10;;;;;;;24.17;17.54;101103.06;5013857;28;20045;-70
2022/04/17 12:09:17;;;;;;;6.53;1.70;;;;;;;22.90;18.98;101109.91;5013990;28;20511;-70
2022/04/17 12:12:02;;;;;;;5.97;1.88;;;;;;;22.70;19.36;101113.34;5013545;28;20049;-69
2022/04/17 12:14:52;;;;;;;3.65;1.70;;;;;;;22.61;19.99;101105.34;5013939;28;20052;-70
2022/04/17 12:17:37;;;;;;;5.20;2.30;;;;;;;22.12;20.54;101101.06;5003508;28;20041;-70
2022/04/17 12:20:23;;;;;;;3.75;1.80;;;;;;;21.70;21.09;101097.91;5013751;28;20069;-70
2022/04/17 12:23:08;;;;;;;4.22;1.52;;;;;;;21.59;20.24;101085.94;5013609;28;20049;-70
2022/04/17 12:25:53;;;;;;;4.55;1.50;;;;;;;21.44;20.64;101085.00;5003364;28;20460;-70
2022/04/17 12:28:39;;;;;;;7.15;2.85;;;;;;;21.25;20.30;101082.41;5013565;28;20057;-70
2022/04/17 12:31:23;;;;;;;;;;;;;;;21.23;21.12;101085.56;5013741;28;20057;-70
2022/04/17 12:34:22;;;;;;;4.22;1.63;;;;;;;21.15;21.12;101083.91;5013322;28;19917;-70
2022/04/17 12:37:21;;;;;;;5.25;1.40;;;;;;;21.16;21.49;101073.63;5013413;28;20536;-70
2022/04/17 12:40:10;;;;;;;6.47;1.58;;;;;;;20.94;21.96;101075.31;5013388;28;20049;-70
2022/04/17 12:43:14;;;;;;;8.13;1.95;;;;;;;20.72;20.71;101065.97;5013222;28;20041;-70
2022/04/17 12:46:04;;;;;;;5.13;1.60;;;;;;;20.81;20.41;101068.44;5000124;28;20056;-70
2022/04/17 12:49:02;;;;;;;6.32;1.58;;;;;;;21.02;20.53;101057.66;5013426;28;20057;-70
2022/04/17 12:51:59;;;;;;;8.43;1.50;;;;;;;20.95;21.58;101052.03;5013166;28;20065;-70
2022/04/17 12:54:43;;;;;;;3.05;1.90;;;;;;;21.17;21.32;101048.38;5013133;28;20060;-70
2022/04/17 12:57:28;;;;;;;6.18;1.50;;;;;;;21.08;20.79;101050.59;5013154;28;20440;-70
2022/04/17 13:00:15;;;;;;;75.47;5.47;;;;;;;21.24;20.95;101042.91;4998366;28;20061;-70
2022/04/17 13:03:14;;;;;;;2.92;1.55;;;;;;;21.10;20.87;101041.91;5007181;28;20096;-70
2022/04/17 13:06:00;;;;;;;8.77;1.80;;;;;;;21.17;21.39;101039.28;5021394;28;20053;-70
2022/04/17 13:09:18;;;;;;;5.13;1.70;;;;;;;24.20;16.90;101041.13;4992965;28;20057;-70
2022/04/17 13:12:04;;;;;;;7.28;2.20;;;;;;;24.00;17.00;101031.59;4993034;28;20510;-71
2022/04/17 13:14:58;;;;;;;7.15;1.58;;;;;;;24.30;16.34;101029.19;4992936;28;20401;-70
2022/04/17 13:17:50;;;;;;;5.40;1.88;;;;;;;22.27;18.97;101035.47;4993309;28;20049;-70
2022/04/17 13:20:34;;;;;;;5.22;1.38;;;;;;;21.63;19.29;101020.34;4993170;28;20045;-71